sensor_id;sensor_type;location;lat;lon;timestamp;pressure;altitude;pressure_sealevel;temperature;humidity
61697;BME280;47610;52.252;20.922;2022-11-14T00:01:22;101608.06;;;8.52;100.00
61697;BME280;47610;52.252;20.922;2022-11-14T00:06:44;101605.90;;;8.52;100.00
61697;BME280;47610;52.252;20.922;2022-11-14T00:12:07;101608.50;;;8.53;100.00
61697;BME280;47610;52.252;20.922;2022-11-14T00:17:29;101608.09;;;8.56;100.00
61697;BME280;47610;52.252;20.922;2022-11-14T00:22:52;101604.98;;;8.59;100.00
61697;BME280;47610;52.252;20.922;2022-11-14T00:28:15;101601.61;;;8.57;100.00
61697;BME280;47610;52.252;20.922;2022-11-14T00:33:38;101600.02;;;8.49;100.00
61697;BME280;47610;52.252;20.922;2022-11-14T00:39:00;101601.00;;;8.43;100.00
61697;BME280;47610;52.252;20.922;2022-11-14T00:44:23;101597.19;;;8.39;100.00
61697;BME280;47610;52.252;20.922;2022-11-14T00:49:46;101597.73;;;8.33;100.00
61697;BME280;47610;52.252;20.922;2022-11-14T00:55:10;101590.05;;;8.28;100.00
61697;BME280;47610;52.252;20.922;2022-11-14T01:00:32;101581.48;;;8.25;100.00
61697;BME280;47610;52.252;20.922;2022-11-14T01:05:55;101575.36;;;8.26;100.00
61697;BME280;47610;52.252;20.922;2022-11-14T01:11:20;101571.44;;;8.29;100.00
61697;BME280;47610;52.252;20.922;2022-11-14T01:16:43;101564.94;;;8.26;100.00
61697;BME280;47610;52.252;20.922;2022-11-14T01:22:06;101564.98;;;8.24;100.00
61697;BME280;47610;52.252;20.922;2022-11-14T01:27:30;101556.55;;;8.24;100.00
61697;BME280;47610;52.252;20.922;2022-11-14T01:32:53;101555.00;;;8.24;100.00
61697;BME280;47610;52.252;20.922;2022-11-14T01:38:15;101550.39;;;8.18;100.00
61697;BME280;47610;52.252;20.922;2022-11-14T01:43:38;101546.67;;;8.16;100.00
61697;BME280;47610;52.252;20.922;2022-11-14T01:49:04;101539.98;;;8.07;100.00
61697;BME280;47610;52.252;20.922;2022-11-14T01:54:31;101535.64;;;8.01;100.00
61697;BME280;47610;52.252;20.922;2022-11-14T01:59:56;101533.35;;;8.01;100.00
61697;BME280;47610;52.252;20.922;2022-11-14T02:05:22;101530.44;;;8.05;100.00
61697;BME280;47610;52.252;20.922;2022-11-14T02:10:44;101531.59;;;8.07;100.00
61697;BME280;47610;52.252;20.922;2022-11-14T02:16:07;101525.42;;;8.08;100.00
61697;BME280;47610;52.252;20.922;2022-11-14T02:21:30;101521.43;;;8.10;100.00
61697;BME280;47610;52.252;20.922;2022-11-14T02:26:52;101518.73;;;8.10;100.00
61697;BME280;47610;52.252;20.922;2022-11-14T02:32:14;101514.90;;;8.06;100.00
61697;BME280;47610;52.252;20.922;2022-11-14T02:37:37;101510.96;;;8.00;100.00
61697;BME280;47610;52.252;20.922;2022-11-14T02:42:59;101505.80;;;7.98;100.00
61697;BME280;47610;52.252;20.922;2022-11-14T02:48:22;101507.79;;;7.99;100.00
61697;BME280;47610;52.252;20.922;2022-11-14T02:53:44;101499.86;;;7.94;100.00
61697;BME280;47610;52.252;20.922;2022-11-14T02:59:07;101493.41;;;7.91;100.00
61697;BME280;47610;52.252;20.922;2022-11-14T03:04:29;101492.35;;;7.88;100.00
61697;BME280;47610;52.252;20.922;2022-11-14T03:09:52;101489.46;;;7.87;100.00
61697;BME280;47610;52.252;20.922;2022-11-14T03:15:14;101486.40;;;7.82;100.00
61697;BME280;47610;52.252;20.922;2022-11-14T03:20:37;101485.85;;;7.76;100.00
61697;BME280;47610;52.252;20.922;2022-11-14T03:26:04;101484.03;;;7.76;100.00
61697;BME280;47610;52.252;20.922;2022-11-14T03:31:26;101481.52;;;7.78;100.00
61697;BME280;47610;52.252;20.922;2022-11-14T03:36:51;101483.79;;;7.78;100.00
61697;BME280;47610;52.252;20.922;2022-11-14T03:42:12;101477.17;;;7.75;100.00
61697;BME280;47610;52.252;20.922;2022-11-14T03:47:34;101471.78;;;7.71;100.00
61697;BME280;47610;52.252;20.922;2022-11-14T03:52:57;101474.84;;;7.73;100.00
61697;BME280;47610;52.252;20.922;2022-11-14T03:58:21;101463.98;;;7.71;100.00
61697;BME280;47610;52.252;20.922;2022-11-14T04:03:43;101462.50;;;7.68;100.00
61697;BME280;47610;52.252;20.922;2022-11-14T04:09:09;101457.18;;;7.62;100.00
61697;BME280;47610;52.252;20.922;2022-11-14T04:14:32;101452.87;;;7.59;100.00
61697;BME280;47610;52.252;20.922;2022-11-14T04:19:55;101449.39;;;7.57;100.00
61697;BME280;47610;52.252;20.922;2022-11-14T04:25:19;101454.87;;;7.54;100.00
61697;BME280;47610;52.252;20.922;2022-11-14T04:30:41;101446.25;;;7.52;100.00
61697;BME280;47610;52.252;20.922;2022-11-14T04:36:06;101441.46;;;7.53;100.00
61697;BME280;47610;52.252;20.922;2022-11-14T04:41:27;101436.10;;;7.55;100.00
61697;BME280;47610;52.252;20.922;2022-11-14T04:46:49;101435.79;;;7.56;100.00
61697;BME280;47610;52.252;20.922;2022-11-14T04:52:11;101436.19;;;7.58;100.00
61697;BME280;47610;52.252;20.922;2022-11-14T04:57:34;101428.73;;;7.60;100.00
61697;BME280;47610;52.252;20.922;2022-11-14T05:02:59;101428.25;;;7.62;100.00
61697;BME280;47610;52.252;20.922;2022-11-14T05:08:22;101430.83;;;7.62;100.00
61697;BME280;47610;52.252;20.922;2022-11-14T05:13:45;101425.39;;;7.58;100.00
61697;BME280;47610;52.252;20.922;2022-11-14T05:19:08;101420.85;;;7.54;100.00
61697;BME280;47610;52.252;20.922;2022-11-14T05:24:31;101420.89;;;7.54;100.00
61697;BME280;47610;52.252;20.922;2022-11-14T05:29:54;101423.52;;;7.56;100.00
61697;BME280;47610;52.252;20.922;2022-11-14T05:35:16;101418.76;;;7.56;100.00
61697;BME280;47610;52.252;20.922;2022-11-14T05:40:39;101415.11;;;7.55;100.00
61697;BME280;47610;52.252;20.922;2022-11-14T05:46:04;101413.88;;;7.52;100.00
61697;BME280;47610;52.252;20.922;2022-11-14T05:51:27;101416.17;;;7.54;100.00
61697;BME280;47610;52.252;20.922;2022-11-14T05:56:50;101423.32;;;7.59;100.00
61697;BME280;47610;52.252;20.922;2022-11-14T06:02:15;101420.14;;;7.54;100.00
61697;BME280;47610;52.252;20.922;2022-11-14T06:07:38;101424.92;;;7.56;100.00
61697;BME280;47610;52.252;20.922;2022-11-14T06:13:00;101425.85;;;7.59;100.00
61697;BME280;47610;52.252;20.922;2022-11-14T06:18:23;101424.92;;;7.61;100.00
61697;BME280;47610;52.252;20.922;2022-11-14T06:23:47;101431.48;;;7.60;100.00
61697;BME280;47610;52.252;20.922;2022-11-14T06:29:11;101429.30;;;7.60;100.00
61697;BME280;47610;52.252;20.922;2022-11-14T06:34:34;101432.54;;;7.63;100.00
61697;BME280;47610;52.252;20.922;2022-11-14T06:39:57;101431.02;;;7.57;100.00
61697;BME280;47610;52.252;20.922;2022-11-14T06:45:20;101435.20;;;7.60;100.00
61697;BME280;47610;52.252;20.922;2022-11-14T06:50:43;101439.19;;;7.64;100.00
61697;BME280;47610;52.252;20.922;2022-11-14T06:56:08;101438.41;;;7.61;100.00
61697;BME280;47610;52.252;20.922;2022-11-14T07:01:31;101442.91;;;7.60;100.00
61697;BME280;47610;52.252;20.922;2022-11-14T07:06:54;101440.05;;;7.63;100.00
61697;BME280;47610;52.252;20.922;2022-11-14T07:12:18;101439.66;;;7.65;100.00
61697;BME280;47610;52.252;20.922;2022-11-14T07:17:40;101440.74;;;7.61;100.00
61697;BME280;47610;52.252;20.922;2022-11-14T07:23:02;101436.75;;;7.57;100.00
61697;BME280;47610;52.252;20.922;2022-11-14T07:28:25;101435.04;;;7.49;100.00
61697;BME280;47610;52.252;20.922;2022-11-14T07:33:48;101428.46;;;7.42;100.00
61697;BME280;47610;52.252;20.922;2022-11-14T07:49:06;101426.92;;;7.41;100.00
61697;BME280;47610;52.252;20.922;2022-11-14T07:54:28;101423.92;;;7.40;100.00
61697;BME280;47610;52.252;20.922;2022-11-14T07:59:50;101423.25;;;7.43;100.00
61697;BME280;47610;52.252;20.922;2022-11-14T08:05:14;101420.48;;;7.47;100.00
61697;BME280;47610;52.252;20.922;2022-11-14T08:10:38;101420.80;;;7.48;100.00
61697;BME280;47610;52.252;20.922;2022-11-14T08:16:07;101415.75;;;7.47;100.00
61697;BME280;47610;52.252;20.922;2022-11-14T08:21:29;101407.73;;;7.48;100.00
61697;BME280;47610;52.252;20.922;2022-11-14T08:26:52;101404.66;;;7.52;100.00
61697;BME280;47610;52.252;20.922;2022-11-14T08:32:14;101401.25;;;7.61;100.00
61697;BME280;47610;52.252;20.922;2022-11-14T08:37:37;101398.70;;;7.68;100.00
61697;BME280;47610;52.252;20.922;2022-11-14T08:43:03;101391.34;;;7.74;100.00
61697;BME280;47610;52.252;20.922;2022-11-14T08:48:25;101393.48;;;7.80;100.00
61697;BME280;47610;52.252;20.922;2022-11-14T08:53:47;101390.01;;;7.87;100.00
61697;BME280;47610;52.252;20.922;2022-11-14T08:59:10;101384.13;;;7.89;100.00
61697;BME280;47610;52.252;20.922;2022-11-14T09:04:32;101381.35;;;7.94;100.00
61697;BME280;47610;52.252;20.922;2022-11-14T09:09:55;101379.33;;;8.02;100.00
61697;BME280;47610;52.252;20.922;2022-11-14T09:15:18;101365.39;;;7.95;100.00
61697;BME280;47610;52.252;20.922;2022-11-14T09:20:41;101364.63;;;7.87;100.00
61697;BME280;47610;52.252;20.922;2022-11-14T09:26:06;101357.16;;;7.79;100.00
61697;BME280;47610;52.252;20.922;2022-11-14T09:31:29;101351.94;;;7.72;100.00
61697;BME280;47610;52.252;20.922;2022-11-14T09:36:51;101352.90;;;7.69;100.00
61697;BME280;47610;52.252;20.922;2022-11-14T09:42:25;101351.89;;;7.69;100.00
61697;BME280;47610;52.252;20.922;2022-11-14T09:47:55;101348.89;;;7.75;100.00
61697;BME280;47610;52.252;20.922;2022-11-14T09:53:28;101346.50;;;7.78;100.00
61697;BME280;47610;52.252;20.922;2022-11-14T09:58:54;101341.18;;;7.78;100.00
61697;BME280;47610;52.252;20.922;2022-11-14T10:04:27;101339.48;;;7.78;100.00
61697;BME280;47610;52.252;20.922;2022-11-14T10:10:02;101340.88;;;7.73;100.00
61697;BME280;47610;52.252;20.922;2022-11-14T10:15:27;101338.96;;;7.74;100.00
61697;BME280;47610;52.252;20.922;2022-11-14T10:20:56;101330.13;;;7.72;100.00
61697;BME280;47610;52.252;20.922;2022-11-14T10:26:23;101322.67;;;7.74;100.00
61697;BME280;47610;52.252;20.922;2022-11-14T10:31:54;101325.78;;;7.76;100.00
61697;BME280;47610;52.252;20.922;2022-11-14T10:37:23;101314.86;;;7.73;100.00
61697;BME280;47610;52.252;20.922;2022-11-14T10:42:47;101307.65;;;7.70;100.00
61697;BME280;47610;52.252;20.922;2022-11-14T10:48:14;101298.05;;;7.70;100.00
61697;BME280;47610;52.252;20.922;2022-11-14T10:53:50;101296.73;;;7.68;100.00
61697;BME280;47610;52.252;20.922;2022-11-14T10:59:15;101292.39;;;7.65;100.00
61697;BME280;47610;52.252;20.922;2022-11-14T11:04:39;101280.95;;;7.66;100.00
61697;BME280;47610;52.252;20.922;2022-11-14T11:10:06;101269.59;;;7.69;100.00
61697;BME280;47610;52.252;20.922;2022-11-14T11:15:45;101260.17;;;7.76;100.00
61697;BME280;47610;52.252;20.922;2022-11-14T11:21:10;101254.25;;;7.80;100.00
61697;BME280;47610;52.252;20.922;2022-11-14T11:26:33;101249.92;;;7.78;100.00
61697;BME280;47610;52.252;20.922;2022-11-14T11:31:57;101243.55;;;7.78;100.00
61697;BME280;47610;52.252;20.922;2022-11-14T11:37:23;101232.05;;;7.76;100.00
61697;BME280;47610;52.252;20.922;2022-11-14T11:42:52;101227.64;;;7.77;100.00
61697;BME280;47610;52.252;20.922;2022-11-14T11:48:21;101224.95;;;7.74;100.00
61697;BME280;47610;52.252;20.922;2022-11-14T11:53:49;101216.45;;;7.70;100.00
61697;BME280;47610;52.252;20.922;2022-11-14T11:59:25;101206.81;;;7.75;100.00
61697;BME280;47610;52.252;20.922;2022-11-14T12:04:51;101215.90;;;7.81;100.00
61697;BME280;47610;52.252;20.922;2022-11-14T12:10:19;101200.52;;;7.85;100.00
61697;BME280;47610;52.252;20.922;2022-11-14T12:15:55;101192.67;;;7.91;100.00
61697;BME280;47610;52.252;20.922;2022-11-14T12:21:34;101196.85;;;7.96;100.00
61697;BME280;47610;52.252;20.922;2022-11-14T12:27:12;101195.94;;;7.96;100.00
61697;BME280;47610;52.252;20.922;2022-11-14T12:32:41;101188.67;;;7.94;100.00
61697;BME280;47610;52.252;20.922;2022-11-14T12:38:12;101192.06;;;7.89;100.00
61697;BME280;47610;52.252;20.922;2022-11-14T12:43:37;101202.62;;;7.78;100.00
61697;BME280;47610;52.252;20.922;2022-11-14T12:49:01;101201.66;;;7.64;100.00
61697;BME280;47610;52.252;20.922;2022-11-14T12:54:46;101198.89;;;7.54;100.00
61697;BME280;47610;52.252;20.922;2022-11-14T13:00:11;101197.27;;;7.46;100.00
61697;BME280;47610;52.252;20.922;2022-11-14T13:05:47;101199.05;;;7.44;100.00
61697;BME280;47610;52.252;20.922;2022-11-14T13:11:36;101201.14;;;7.39;100.00
61697;BME280;47610;52.252;20.922;2022-11-14T13:17:21;101199.54;;;7.36;100.00
61697;BME280;47610;52.252;20.922;2022-11-14T13:22:46;101192.90;;;7.32;100.00
61697;BME280;47610;52.252;20.922;2022-11-14T13:34:30;101185.99;;;7.27;100.00
61697;BME280;47610;52.252;20.922;2022-11-14T13:40:01;101185.02;;;7.21;100.00
61697;BME280;47610;52.252;20.922;2022-11-14T13:45:49;101184.92;;;7.13;100.00
61697;BME280;47610;52.252;20.922;2022-11-14T13:51:15;101184.43;;;7.01;100.00
61697;BME280;47610;52.252;20.922;2022-11-14T13:56:48;101184.58;;;6.97;100.00
61697;BME280;47610;52.252;20.922;2022-11-14T14:02:43;101181.42;;;6.91;100.00
61697;BME280;47610;52.252;20.922;2022-11-14T14:08:19;101174.61;;;6.88;100.00
61697;BME280;47610;52.252;20.922;2022-11-14T14:13:54;101171.70;;;6.96;100.00
61697;BME280;47610;52.252;20.922;2022-11-14T14:19:27;101162.14;;;7.11;100.00
61697;BME280;47610;52.252;20.922;2022-11-14T14:25:01;101147.42;;;7.23;100.00
61697;BME280;47610;52.252;20.922;2022-11-14T14:30:25;101137.45;;;7.25;100.00
61697;BME280;47610;52.252;20.922;2022-11-14T14:35:54;101135.52;;;7.30;100.00
61697;BME280;47610;52.252;20.922;2022-11-14T14:41:18;101131.80;;;7.31;100.00
61697;BME280;47610;52.252;20.922;2022-11-14T14:46:40;101124.63;;;7.26;100.00
61697;BME280;47610;52.252;20.922;2022-11-14T14:52:02;101119.64;;;7.19;100.00
61697;BME280;47610;52.252;20.922;2022-11-14T14:57:39;101113.20;;;7.16;100.00
61697;BME280;47610;52.252;20.922;2022-11-14T15:03:03;101111.71;;;7.13;100.00
61697;BME280;47610;52.252;20.922;2022-11-14T15:08:25;101102.44;;;7.15;100.00
61697;BME280;47610;52.252;20.922;2022-11-14T15:13:51;101105.21;;;7.17;100.00
61697;BME280;47610;52.252;20.922;2022-11-14T15:19:15;101104.90;;;7.19;100.00
61697;BME280;47610;52.252;20.922;2022-11-14T15:24:39;101102.33;;;7.13;100.00
61697;BME280;47610;52.252;20.922;2022-11-14T15:30:03;101098.23;;;6.94;100.00
61697;BME280;47610;52.252;20.922;2022-11-14T15:35:29;101085.67;;;6.85;100.00
61697;BME280;47610;52.252;20.922;2022-11-14T15:41:15;101080.14;;;6.84;100.00
61697;BME280;47610;52.252;20.922;2022-11-14T15:46:46;101072.63;;;6.84;100.00
61697;BME280;47610;52.252;20.922;2022-11-14T15:52:19;101068.06;;;6.81;100.00
61697;BME280;47610;52.252;20.922;2022-11-14T15:57:42;101059.83;;;6.80;100.00
61697;BME280;47610;52.252;20.922;2022-11-14T16:03:10;101058.88;;;6.75;100.00
61697;BME280;47610;52.252;20.922;2022-11-14T16:08:33;101062.88;;;6.64;100.00
61697;BME280;47610;52.252;20.922;2022-11-14T16:13:55;101054.76;;;6.52;100.00
61697;BME280;47610;52.252;20.922;2022-11-14T16:19:17;101056.89;;;6.49;100.00
61697;BME280;47610;52.252;20.922;2022-11-14T16:24:39;101047.30;;;6.49;100.00
61697;BME280;47610;52.252;20.922;2022-11-14T16:30:01;101044.46;;;6.45;100.00
61697;BME280;47610;52.252;20.922;2022-11-14T16:35:25;101034.45;;;6.45;100.00
61697;BME280;47610;52.252;20.922;2022-11-14T16:40:47;101026.52;;;6.43;100.00
61697;BME280;47610;52.252;20.922;2022-11-14T16:46:10;101021.17;;;6.43;100.00
61697;BME280;47610;52.252;20.922;2022-11-14T16:51:32;101027.23;;;6.44;100.00
61697;BME280;47610;52.252;20.922;2022-11-14T16:56:54;101025.63;;;6.44;100.00
61697;BME280;47610;52.252;20.922;2022-11-14T17:02:16;101021.75;;;6.42;100.00
61697;BME280;47610;52.252;20.922;2022-11-14T17:07:38;101024.43;;;6.42;100.00
61697;BME280;47610;52.252;20.922;2022-11-14T17:13:00;101025.63;;;6.44;100.00
61697;BME280;47610;52.252;20.922;2022-11-14T17:18:22;101017.86;;;6.42;100.00
61697;BME280;47610;52.252;20.922;2022-11-14T17:23:44;101013.50;;;6.41;100.00
61697;BME280;47610;52.252;20.922;2022-11-14T17:29:06;101002.56;;;6.42;100.00
61697;BME280;47610;52.252;20.922;2022-11-14T17:34:29;101001.67;;;6.41;100.00
61697;BME280;47610;52.252;20.922;2022-11-14T17:39:51;100992.98;;;6.41;100.00
61697;BME280;47610;52.252;20.922;2022-11-14T17:45:12;100988.73;;;6.41;100.00
61697;BME280;47610;52.252;20.922;2022-11-14T17:50:38;100984.02;;;6.47;100.00
61697;BME280;47610;52.252;20.922;2022-11-14T17:56:01;100979.41;;;6.53;100.00
61697;BME280;47610;52.252;20.922;2022-11-14T18:01:24;100976.44;;;6.55;100.00
61697;BME280;47610;52.252;20.922;2022-11-14T18:06:46;100981.36;;;6.55;100.00
61697;BME280;47610;52.252;20.922;2022-11-14T18:12:08;100980.46;;;6.53;100.00
61697;BME280;47610;52.252;20.922;2022-11-14T18:17:30;100972.80;;;6.53;100.00
61697;BME280;47610;52.252;20.922;2022-11-14T18:22:52;100974.02;;;6.56;100.00
61697;BME280;47610;52.252;20.922;2022-11-14T18:28:14;100967.60;;;6.55;100.00
61697;BME280;47610;52.252;20.922;2022-11-14T18:33:37;100962.32;;;6.59;100.00
61697;BME280;47610;52.252;20.922;2022-11-14T18:38:59;100953.59;;;6.57;100.00
61697;BME280;47610;52.252;20.922;2022-11-14T18:44:21;100950.07;;;6.57;100.00
61697;BME280;47610;52.252;20.922;2022-11-14T18:49:43;100948.58;;;6.58;100.00
61697;BME280;47610;52.252;20.922;2022-11-14T18:55:06;100949.21;;;6.57;100.00
61697;BME280;47610;52.252;20.922;2022-11-14T19:00:28;100948.34;;;6.62;100.00
61697;BME280;47610;52.252;20.922;2022-11-14T19:05:50;100938.30;;;6.63;100.00
61697;BME280;47610;52.252;20.922;2022-11-14T19:11:13;100932.85;;;6.59;100.00
61697;BME280;47610;52.252;20.922;2022-11-14T19:16:38;100933.52;;;6.60;100.00
61697;BME280;47610;52.252;20.922;2022-11-14T19:22:00;100930.13;;;6.64;100.00
61697;BME280;47610;52.252;20.922;2022-11-14T19:27:22;100926.60;;;6.61;100.00
61697;BME280;47610;52.252;20.922;2022-11-14T19:32:44;100922.55;;;6.56;100.00
61697;BME280;47610;52.252;20.922;2022-11-14T19:38:06;100917.48;;;6.50;100.00
61697;BME280;47610;52.252;20.922;2022-11-14T19:43:29;100907.14;;;6.39;100.00
61697;BME280;47610;52.252;20.922;2022-11-14T19:48:56;100899.98;;;6.30;100.00
61697;BME280;47610;52.252;20.922;2022-11-14T19:54:19;100899.77;;;6.26;100.00
61697;BME280;47610;52.252;20.922;2022-11-14T19:59:41;100895.14;;;6.21;100.00
61697;BME280;47610;52.252;20.922;2022-11-14T20:05:05;100889.69;;;6.18;100.00
61697;BME280;47610;52.252;20.922;2022-11-14T20:10:27;100880.68;;;6.16;100.00
61697;BME280;47610;52.252;20.922;2022-11-14T20:15:51;100878.52;;;6.12;100.00
61697;BME280;47610;52.252;20.922;2022-11-14T20:21:15;100875.54;;;6.11;100.00
61697;BME280;47610;52.252;20.922;2022-11-14T20:26:39;100872.64;;;6.06;100.00
61697;BME280;47610;52.252;20.922;2022-11-14T20:32:01;100864.52;;;6.05;100.00
61697;BME280;47610;52.252;20.922;2022-11-14T20:37:24;100862.27;;;6.03;100.00
61697;BME280;47610;52.252;20.922;2022-11-14T20:42:49;100855.64;;;6.00;100.00
61697;BME280;47610;52.252;20.922;2022-11-14T20:48:12;100845.81;;;6.03;100.00
61697;BME280;47610;52.252;20.922;2022-11-14T20:53:35;100835.59;;;6.03;100.00
61697;BME280;47610;52.252;20.922;2022-11-14T20:58:59;100836.17;;;5.98;100.00
61697;BME280;47610;52.252;20.922;2022-11-14T21:04:21;100820.41;;;5.95;100.00
61697;BME280;47610;52.252;20.922;2022-11-14T21:09:43;100818.54;;;5.92;100.00
61697;BME280;47610;52.252;20.922;2022-11-14T21:15:07;100811.81;;;5.83;100.00
61697;BME280;47610;52.252;20.922;2022-11-14T21:20:29;100806.65;;;5.77;100.00
61697;BME280;47610;52.252;20.922;2022-11-14T21:25:52;100809.89;;;5.72;100.00
61697;BME280;47610;52.252;20.922;2022-11-14T21:31:26;100810.70;;;5.71;100.00
61697;BME280;47610;52.252;20.922;2022-11-14T21:36:49;100811.98;;;5.73;100.00
61697;BME280;47610;52.252;20.922;2022-11-14T21:42:11;100799.48;;;5.71;100.00
61697;BME280;47610;52.252;20.922;2022-11-14T21:47:34;100793.69;;;5.68;100.00
61697;BME280;47610;52.252;20.922;2022-11-14T21:52:59;100789.33;;;5.72;100.00
61697;BME280;47610;52.252;20.922;2022-11-14T21:58:22;100786.76;;;5.75;100.00
61697;BME280;47610;52.252;20.922;2022-11-14T22:03:46;100782.55;;;5.78;100.00
61697;BME280;47610;52.252;20.922;2022-11-14T22:09:10;100778.55;;;5.76;100.00
61697;BME280;47610;52.252;20.922;2022-11-14T22:14:32;100778.05;;;5.72;100.00
61697;BME280;47610;52.252;20.922;2022-11-14T22:19:54;100774.02;;;5.71;100.00
61697;BME280;47610;52.252;20.922;2022-11-14T22:25:16;100776.60;;;5.67;100.00
61697;BME280;47610;52.252;20.922;2022-11-14T22:30:39;100770.23;;;5.57;100.00
61697;BME280;47610;52.252;20.922;2022-11-14T22:36:10;100764.43;;;5.51;100.00
61697;BME280;47610;52.252;20.922;2022-11-14T22:41:33;100756.92;;;5.45;100.00
61697;BME280;47610;52.252;20.922;2022-11-14T22:46:58;100749.18;;;5.31;100.00
61697;BME280;47610;52.252;20.922;2022-11-14T22:52:20;100751.19;;;5.27;100.00
61697;BME280;47610;52.252;20.922;2022-11-14T22:57:42;100749.09;;;5.28;100.00
61697;BME280;47610;52.252;20.922;2022-11-14T23:03:05;100740.03;;;5.28;100.00
61697;BME280;47610;52.252;20.922;2022-11-14T23:08:28;100738.80;;;5.25;100.00
61697;BME280;47610;52.252;20.922;2022-11-14T23:13:52;100740.98;;;5.23;100.00
61697;BME280;47610;52.252;20.922;2022-11-14T23:19:15;100731.81;;;5.21;100.00
61697;BME280;47610;52.252;20.922;2022-11-14T23:24:38;100722.30;;;5.22;100.00
61697;BME280;47610;52.252;20.922;2022-11-14T23:30:00;100719.04;;;5.25;100.00
61697;BME280;47610;52.252;20.922;2022-11-14T23:35:23;100715.13;;;5.26;100.00
61697;BME280;47610;52.252;20.922;2022-11-14T23:40:51;100707.69;;;5.25;100.00
61697;BME280;47610;52.252;20.922;2022-11-14T23:46:13;100713.64;;;5.29;100.00
61697;BME280;47610;52.252;20.922;2022-11-14T23:51:35;100709.95;;;5.34;100.00
61697;BME280;47610;52.252;20.922;2022-11-14T23:56:57;100708.98;;;5.37;100.00
